Time;durP1;ratioP1;P1;durP2;ratioP2;P2;SDS_P1;SDS_P2;PMS_P1;PMS_P2;Temp;Humidity;BMP_temperature;BMP_pressure;BME280_temperature;BME280_humidity;BME280_pressure;Samples;Min_cycle;Max_cycle;Signal;HPM_P1;HPM_P2
2023/04/20 00:01:51;;;;;;;1.85;1.75;;;;;;;;;;5093040;28;20035;-75
2023/04/20 00:04:17;;;;;;;2.08;1.65;;;;;;;;;;5093001;28;20413;-75
2023/04/20 00:06:43;;;;;;;2.25;2.05;;;;;;;;;;5094037;28;20028;-74
2023/04/20 00:09:12;;;;;;;0.10;0.10;;;;;;;;;;5096792;28;20103;-75
2023/04/20 00:11:38;;;;;;;1.83;1.52;;;;;;;;;;5077947;28;20031;-75
2023/04/20 00:14:03;;;;;;;0.10;0.10;;;;;;;;;;5075647;28;20054;-75
2023/04/20 00:16:29;;;;;;;0.17;0.17;;;;;;;;;;5093087;28;20031;-75
2023/04/20 00:18:54;;;;;;;0.15;0.15;;;;;;;;;;5093309;28;20493;-75
2023/04/20 00:21:23;;;;;;;2.53;2.22;;;;;;;;;;5092864;28;20539;-76
2023/04/20 00:23:49;;;;;;;0.55;0.55;;;;;;;;;;5073875;28;20051;-76
2023/04/20 00:26:14;;;;;;;0.20;0.20;;;;;;;;;;5091973;28;20036;-76
2023/04/20 00:28:41;;;;;;;0.20;0.20;;;;;;;;;;5074626;28;20032;-76
2023/04/20 00:31:06;;;;;;;0.10;0.10;;;;;;;;;;5092870;28;20024;-75
2023/04/20 00:33:31;;;;;;;0.20;0.20;;;;;;;;;;5074695;28;20043;-76
2023/04/20 00:35:57;;;;;;;0.10;0.10;;;;;;;;;;5092713;28;20184;-76
2023/04/20 00:38:22;;;;;;;1.65;1.55;;;;;;;;;;5091350;28;20466;-76
2023/04/20 00:40:51;;;;;;;0.20;0.20;;;;;;;;;;5092773;28;20044;-75
2023/04/20 00:43:18;;;;;;;0.10;0.10;;;;;;;;;;5057793;28;20063;-74
2023/04/20 00:45:44;;;;;;;0.20;0.20;;;;;;;;;;5074876;28;20094;-74
2023/04/20 00:48:10;;;;;;;1.55;1.45;;;;;;;;;;5074628;28;20078;-74
2023/04/20 00:50:36;;;;;;;3.17;3.03;;;;;;;;;;5092660;28;20502;-74
2023/04/20 00:53:06;;;;;;;2.03;1.25;;;;;;;;;;5073603;28;20410;-75
2023/04/20 00:55:32;;;;;;;0.20;0.20;;;;;;;;;;5094864;28;20437;-74
2023/04/20 00:57:57;;;;;;;1.10;0.85;;;;;;;;;;5077999;28;20039;-73
2023/04/20 01:00:24;;;;;;;0.50;0.50;;;;;;;;;;5095901;28;20032;-74
2023/04/20 01:02:49;;;;;;;0.10;0.10;;;;;;;;;;5077771;28;20127;-74
2023/04/20 01:05:15;;;;;;;0.45;0.45;;;;;;;;;;5077839;28;20043;-75
2023/04/20 01:07:40;;;;;;;0.15;0.15;;;;;;;;;;5095767;28;20039;-75
2023/04/20 01:10:06;;;;;;;6.47;1.75;;;;;;;;;;5095813;28;20039;-75
2023/04/20 01:12:32;;;;;;;0.10;0.10;;;;;;;;;;5076220;28;20032;-75
2023/04/20 01:14:57;;;;;;;0.30;0.30;;;;;;;;;;5077382;28;20058;-74
2023/04/20 01:17:23;;;;;;;0.32;0.32;;;;;;;;;;5095812;28;20036;-74
2023/04/20 01:19:49;;;;;;;0.10;0.10;;;;;;;;;;5095641;28;20050;-74
2023/04/20 01:22:20;;;;;;;0.98;0.98;;;;;;;;;;5095662;28;20028;-75
2023/04/20 01:24:46;;;;;;;0.52;0.52;;;;;;;;;;5095544;28;20047;-74
2023/04/20 01:27:12;;;;;;;0.17;0.17;;;;;;;;;;5077407;28;20016;-74
2023/04/20 01:29:38;;;;;;;0.10;0.10;;;;;;;;;;5095430;28;20087;-74
2023/04/20 01:32:03;;;;;;;0.93;0.93;;;;;;;;;;5077516;28;20039;-74
2023/04/20 01:34:30;;;;;;;0.63;0.63;;;;;;;;;;5095326;28;20498;-75
2023/04/20 01:36:56;;;;;;;0.10;0.10;;;;;;;;;;5095371;28;20040;-75
2023/04/20 01:39:21;;;;;;;0.10;0.10;;;;;;;;;;5093791;28;20032;-75
2023/04/20 01:41:47;;;;;;;0.22;0.22;;;;;;;;;;5077017;28;20455;-75
2023/04/20 01:44:12;;;;;;;0.10;0.10;;;;;;;;;;5095256;28;20525;-74
2023/04/20 01:46:38;;;;;;;0.20;0.20;;;;;;;;;;5077194;28;20028;-75
2023/04/20 01:49:06;;;;;;;0.20;0.20;;;;;;;;;;5077265;28;20436;-75
2023/04/20 01:51:32;;;;;;;0.20;0.20;;;;;;;;;;5077239;28;20040;-75
2023/04/20 01:53:59;;;;;;;0.10;0.10;;;;;;;;;;5093553;28;20092;-76
2023/04/20 01:56:24;;;;;;;0.10;0.10;;;;;;;;;;5095013;28;20503;-76
2023/04/20 01:58:50;;;;;;;0.20;0.20;;;;;;;;;;5076986;28;20032;-75
2023/04/20 02:01:15;;;;;;;0.57;0.57;;;;;;;;;;5076902;28;20024;-74
2023/04/20 02:03:41;;;;;;;0.20;0.20;;;;;;;;;;5095025;28;20115;-73
2023/04/20 02:06:06;;;;;;;0.52;0.52;;;;;;;;;;5094523;28;20111;-74
2023/04/20 02:08:32;;;;;;;1.20;1.20;;;;;;;;;;5094837;28;20447;-73
2023/04/20 02:10:58;;;;;;;0.10;0.10;;;;;;;;;;5076237;28;20038;-73
2023/04/20 02:13:23;;;;;;;0.60;0.60;;;;;;;;;;5093594;28;20119;-73
2023/04/20 02:15:49;;;;;;;3.22;3.05;;;;;;;;;;5093874;28;20032;-73
2023/04/20 02:18:15;;;;;;;0.20;0.20;;;;;;;;;;5093840;28;20077;-73
2023/04/20 02:20:41;;;;;;;0.20;0.20;;;;;;;;;;5097985;28;20024;-73
2023/04/20 02:23:06;;;;;;;2.92;2.80;;;;;;;;;;5095263;28;20032;-73
2023/04/20 02:25:34;;;;;;;0.20;0.20;;;;;;;;;;5076750;28;20032;-74
2023/04/20 02:27:59;;;;;;;0.10;0.10;;;;;;;;;;5094849;28;20055;-73
2023/04/20 02:30:25;;;;;;;0.30;0.30;;;;;;;;;;5059636;28;20040;-73
2023/04/20 02:32:50;;;;;;;0.40;0.40;;;;;;;;;;5076507;28;20070;-73
2023/04/20 02:35:16;;;;;;;0.20;0.20;;;;;;;;;;5093176;28;20036;-74
2023/04/20 02:37:42;;;;;;;0.10;0.10;;;;;;;;;;5076563;28;20032;-75
2023/04/20 02:40:10;;;;;;;0.63;0.63;;;;;;;;;;5070443;28;20024;-74
2023/04/20 02:42:35;;;;;;;0.28;0.28;;;;;;;;;;5076726;28;20035;-74
2023/04/20 02:45:02;;;;;;;0.20;0.20;;;;;;;;;;5076286;28;20027;-74
2023/04/20 02:47:29;;;;;;;0.32;0.32;;;;;;;;;;5076495;28;20047;-73
2023/04/20 02:49:54;;;;;;;0.20;0.20;;;;;;;;;;5076307;28;20024;-74
2023/04/20 02:52:20;;;;;;;0.75;0.75;;;;;;;;;;5094305;28;20042;-74
2023/04/20 02:54:46;;;;;;;1.10;0.68;;;;;;;;;;5075149;28;20032;-74
2023/04/20 02:57:12;;;;;;;0.35;0.35;;;;;;;;;;5076177;28;20064;-74
2023/04/20 02:59:38;;;;;;;0.35;0.35;;;;;;;;;;5076229;28;20506;-74
2023/04/20 03:02:09;;;;;;;0.20;0.20;;;;;;;;;;5073240;28;20032;-74
2023/04/20 03:04:35;;;;;;;1.02;1.00;;;;;;;;;;5072214;28;20035;-74
2023/04/20 03:07:08;;;;;;;0.20;0.20;;;;;;;;;;5072196;28;20505;-74
2023/04/20 03:09:36;;;;;;;0.20;0.20;;;;;;;;;;5071979;28;20398;-75
2023/04/20 03:12:12;;;;;;;0.10;0.10;;;;;;;;;;5072204;28;20487;-77
2023/04/20 03:14:51;;;;;;;0.73;0.73;;;;;;;;;;5071558;28;20036;-75
2023/04/20 03:17:22;;;;;;;0.35;0.35;;;;;;;;;;5071292;28;20431;-75
2023/04/20 03:19:47;;;;;;;0.10;0.10;;;;;;;;;;5071360;28;20063;-75
2023/04/20 03:22:13;;;;;;;0.20;0.20;;;;;;;;;;5054987;28;20063;-75
2023/04/20 03:24:38;;;;;;;0.20;0.20;;;;;;;;;;5090201;28;20122;-74
2023/04/20 03:27:15;;;;;;;0.13;0.13;;;;;;;;;;5071881;28;20089;-73
2023/04/20 03:29:53;;;;;;;0.20;0.20;;;;;;;;;;5071170;28;20044;-75
2023/04/20 03:32:19;;;;;;;22.27;7.97;;;;;;;;;;5071434;28;20036;-75
2023/04/20 03:34:44;;;;;;;0.20;0.20;;;;;;;;;;5071587;28;20775;-74
2023/04/20 03:37:10;;;;;;;0.20;0.20;;;;;;;;;;5071535;28;20032;-74
2023/04/20 03:39:35;;;;;;;0.10;0.10;;;;;;;;;;5089810;28;20088;-74
2023/04/20 03:42:02;;;;;;;0.10;0.10;;;;;;;;;;5071008;28;20406;-75
2023/04/20 03:44:28;;;;;;;0.30;0.30;;;;;;;;;;5071562;28;20032;-74
2023/04/20 03:46:53;;;;;;;0.20;0.20;;;;;;;;;;5089545;28;20040;-75
2023/04/20 03:49:23;;;;;;;0.20;0.20;;;;;;;;;;5087069;28;20043;-74
2023/04/20 03:51:48;;;;;;;0.70;0.70;;;;;;;;;;5071017;28;20028;-75
2023/04/20 03:54:13;;;;;;;0.10;0.10;;;;;;;;;;5089165;28;20172;-75
2023/04/20 03:56:39;;;;;;;10.68;1.75;;;;;;;;;;5071241;28;20039;-75
2023/04/20 03:59:04;;;;;;;1.58;1.48;;;;;;;;;;5069970;28;20118;-74
2023/04/20 04:01:30;;;;;;;0.25;0.25;;;;;;;;;;5070353;28;20036;-76
2023/04/20 04:03:56;;;;;;;0.10;0.10;;;;;;;;;;5071041;28;20032;-76
2023/04/20 04:06:21;;;;;;;0.10;0.10;;;;;;;;;;5070919;28;20020;-74
2023/04/20 04:08:47;;;;;;;0.20;0.20;;;;;;;;;;5071034;28;20036;-74
2023/04/20 04:11:12;;;;;;;0.28;0.28;;;;;;;;;;5070924;28;20036;-74
2023/04/20 04:13:38;;;;;;;0.20;0.20;;;;;;;;;;5069948;28;20044;-74
2023/04/20 04:16:06;;;;;;;0.20;0.20;;;;;;;;;;5070281;28;20042;-75
2023/04/20 04:18:31;;;;;;;0.20;0.20;;;;;;;;;;5070903;28;20463;-76
2023/04/20 04:20:59;;;;;;;0.20;0.20;;;;;;;;;;5070583;28;20035;-75
2023/04/20 04:23:25;;;;;;;0.50;0.50;;;;;;;;;;5070438;28;20032;-76
2023/04/20 04:26:16;;;;;;;0.20;0.20;;;;;;;;;;5072007;28;20028;-75
2023/04/20 04:28:44;;;;;;;0.20;0.20;;;;;;;;;;5071269;28;20032;-74
2023/04/20 04:31:16;;;;;;;0.20;0.20;;;;;;;;;;5072902;28;20036;-74
2023/04/20 04:33:43;;;;;;;0.20;0.20;;;;;;;;;;5088887;28;20040;-74
2023/04/20 04:36:10;;;;;;;0.10;0.10;;;;;;;;;;5069896;28;20032;-74
2023/04/20 04:38:35;;;;;;;5.38;4.82;;;;;;;;;;5087606;28;20498;-75
2023/04/20 04:41:01;;;;;;;0.10;0.10;;;;;;;;;;5069268;28;20031;-74
2023/04/20 04:43:29;;;;;;;0.10;0.10;;;;;;;;;;5070186;28;20028;-74
2023/04/20 04:46:11;;;;;;;0.20;0.20;;;;;;;;;;5054555;28;20127;-74
2023/04/20 04:48:36;;;;;;;0.10;0.10;;;;;;;;;;5088695;28;20375;-74
2023/04/20 04:51:03;;;;;;;0.30;0.30;;;;;;;;;;5087411;28;20055;-74
2023/04/20 04:53:29;;;;;;;0.10;0.10;;;;;;;;;;5088620;28;20616;-75
2023/04/20 04:55:54;;;;;;;0.20;0.20;;;;;;;;;;5086953;28;20387;-76
2023/04/20 04:58:20;;;;;;;0.13;0.13;;;;;;;;;;5088443;28;20040;-74
2023/04/20 05:00:45;;;;;;;0.20;0.20;;;;;;;;;;5084825;28;20028;-75
2023/04/20 05:03:11;;;;;;;0.40;0.40;;;;;;;;;;5087177;28;20028;-74
2023/04/20 05:05:37;;;;;;;0.10;0.10;;;;;;;;;;5082074;28;20024;-74
2023/04/20 05:08:02;;;;;;;0.20;0.20;;;;;;;;;;5080657;28;20028;-74
2023/04/20 05:10:28;;;;;;;0.10;0.10;;;;;;;;;;5066940;28;20035;-74
2023/04/20 05:12:53;;;;;;;0.35;0.35;;;;;;;;;;5068234;28;20039;-75
2023/04/20 05:15:19;;;;;;;2.75;0.68;;;;;;;;;;5069599;28;20039;-74
2023/04/20 05:17:44;;;;;;;0.30;0.30;;;;;;;;;;5079522;28;20479;-75
2023/04/20 05:20:11;;;;;;;0.10;0.10;;;;;;;;;;5083315;28;20421;-76
2023/04/20 05:22:36;;;;;;;0.20;0.20;;;;;;;;;;5082717;28;20662;-74
2023/04/20 05:25:03;;;;;;;0.13;0.13;;;;;;;;;;5076939;28;20039;-75
2023/04/20 05:27:28;;;;;;;0.10;0.10;;;;;;;;;;5081057;28;20310;-75
2023/04/20 05:29:54;;;;;;;0.15;0.15;;;;;;;;;;5071874;28;20029;-76
2023/04/20 05:32:19;;;;;;;0.10;0.10;;;;;;;;;;5080036;28;20934;-75
2023/04/20 05:34:44;;;;;;;0.10;0.10;;;;;;;;;;5076076;28;20036;-75
2023/04/20 05:37:10;;;;;;;0.10;0.10;;;;;;;;;;5075819;28;20028;-74
2023/04/20 05:39:36;;;;;;;0.10;0.10;;;;;;;;;;5073721;28;20044;-75
2023/04/20 05:42:01;;;;;;;0.10;0.10;;;;;;;;;;5082782;28;20101;-75
2023/04/20 05:44:27;;;;;;;1.65;1.38;;;;;;;;;;5069967;28;20115;-74
2023/04/20 05:46:52;;;;;;;0.15;0.15;;;;;;;;;;5052251;28;20032;-74
2023/04/20 05:49:17;;;;;;;0.25;0.25;;;;;;;;;;5071096;28;20064;-74
2023/04/20 05:51:43;;;;;;;1.40;1.30;;;;;;;;;;5071121;28;20029;-74
2023/04/20 05:54:09;;;;;;;1.55;1.30;;;;;;;;;;5070715;28;20902;-74
2023/04/20 05:56:35;;;;;;;0.20;0.20;;;;;;;;;;5060837;28;20387;-75
2023/04/20 05:59:00;;;;;;;0.22;0.22;;;;;;;;;;5066784;28;20040;-77
2023/04/20 06:01:26;;;;;;;0.63;0.63;;;;;;;;;;5070457;28;20039;-76
2023/04/20 06:03:51;;;;;;;0.10;0.10;;;;;;;;;;5071464;28;20437;-74
2023/04/20 06:06:17;;;;;;;0.10;0.10;;;;;;;;;;5086925;28;20184;-74
2023/04/20 06:08:42;;;;;;;0.10;0.10;;;;;;;;;;5089339;28;20387;-75
2023/04/20 06:11:08;;;;;;;0.30;0.30;;;;;;;;;;5090658;28;20039;-75
2023/04/20 06:13:34;;;;;;;0.10;0.10;;;;;;;;;;5088032;28;20046;-75
2023/04/20 06:16:00;;;;;;;0.10;0.10;;;;;;;;;;5089218;28;20035;-74
2023/04/20 06:18:25;;;;;;;0.20;0.20;;;;;;;;;;5089778;28;20025;-74
2023/04/20 06:20:51;;;;;;;0.10;0.10;;;;;;;;;;5090878;28;20096;-74
2023/04/20 06:23:16;;;;;;;0.35;0.35;;;;;;;;;;5090737;28;20099;-74
2023/04/20 06:25:42;;;;;;;0.10;0.10;;;;;;;;;;5090510;28;20070;-73
2023/04/20 06:28:08;;;;;;;0.10;0.10;;;;;;;;;;5087049;28;20028;-74
2023/04/20 06:30:33;;;;;;;0.10;0.10;;;;;;;;;;5084384;28;20032;-73
2023/04/20 06:32:59;;;;;;;1.08;1.00;;;;;;;;;;5064798;28;20032;-74
2023/04/20 06:35:25;;;;;;;0.30;0.30;;;;;;;;;;5090353;28;20024;-74
2023/04/20 06:37:51;;;;;;;1.42;0.65;;;;;;;;;;5090756;28;20021;-74
2023/04/20 06:40:16;;;;;;;0.82;0.82;;;;;;;;;;5082875;28;20040;-74
2023/04/20 06:42:42;;;;;;;0.98;0.77;;;;;;;;;;5086440;28;20036;-76
2023/04/20 06:45:07;;;;;;;0.20;0.20;;;;;;;;;;5054425;28;20849;-75
2023/04/20 06:47:33;;;;;;;2.40;1.67;;;;;;;;;;5088399;28;20167;-75
2023/04/20 06:50:05;;;;;;;0.22;0.22;;;;;;;;;;5083714;28;20036;-75
2023/04/20 06:52:31;;;;;;;1.15;0.90;;;;;;;;;;5076031;28;20024;-74
2023/04/20 06:54:57;;;;;;;0.20;0.20;;;;;;;;;;5078078;28;20047;-74
2023/04/20 06:57:22;;;;;;;0.20;0.20;;;;;;;;;;5085609;28;20467;-74
2023/04/20 06:59:48;;;;;;;1.10;0.95;;;;;;;;;;5089569;28;20047;-74
2023/04/20 07:02:13;;;;;;;3.28;1.33;;;;;;;;;;5088535;28;20035;-75
2023/04/20 07:04:39;;;;;;;0.50;0.50;;;;;;;;;;5088535;28;20028;-76
2023/04/20 07:07:04;;;;;;;0.30;0.30;;;;;;;;;;5085769;28;20059;-74
2023/04/20 07:09:30;;;;;;;0.40;0.40;;;;;;;;;;5089449;28;20071;-74
2023/04/20 07:11:55;;;;;;;0.22;0.22;;;;;;;;;;5070239;28;20068;-75
2023/04/20 07:14:21;;;;;;;0.30;0.30;;;;;;;;;;5089857;28;20551;-76
2023/04/20 07:16:46;;;;;;;0.88;0.88;;;;;;;;;;5088216;28;20047;-75
2023/04/20 07:19:12;;;;;;;38.58;4.60;;;;;;;;;;5088684;28;20106;-75
2023/04/20 07:21:37;;;;;;;0.95;0.95;;;;;;;;;;5066742;28;20077;-75
2023/04/20 07:24:02;;;;;;;0.45;0.45;;;;;;;;;;5068051;28;20047;-77
2023/04/20 07:26:28;;;;;;;0.20;0.20;;;;;;;;;;5088010;28;20032;-76
2023/04/20 07:28:53;;;;;;;0.20;0.20;;;;;;;;;;5089055;28;20032;-75
2023/04/20 07:31:19;;;;;;;2.35;2.20;;;;;;;;;;5088117;28;20541;-75
2023/04/20 07:33:45;;;;;;;0.20;0.20;;;;;;;;;;5089070;28;20482;-76
2023/04/20 07:36:10;;;;;;;2.10;2.00;;;;;;;;;;5067139;28;20024;-76
2023/04/20 07:38:35;;;;;;;0.10;0.10;;;;;;;;;;5080349;28;20035;-77
2023/04/20 07:41:01;;;;;;;0.20;0.20;;;;;;;;;;5068789;28;20498;-75
2023/04/20 07:43:27;;;;;;;0.20;0.20;;;;;;;;;;5050744;28;20127;-75
2023/04/20 07:45:52;;;;;;;0.20;0.20;;;;;;;;;;5080554;28;20031;-75
2023/04/20 07:48:18;;;;;;;0.20;0.20;;;;;;;;;;5088902;28;20039;-74
2023/04/20 07:50:43;;;;;;;0.20;0.20;;;;;;;;;;5089026;28;20036;-78
2023/04/20 07:53:08;;;;;;;0.20;0.20;;;;;;;;;;5088931;28;20067;-73
2023/04/20 07:55:34;;;;;;;0.93;0.93;;;;;;;;;;5088907;28;20032;-75
2023/04/20 07:58:00;;;;;;;0.20;0.20;;;;;;;;;;5081901;28;20090;-76
2023/04/20 08:00:25;;;;;;;1.00;1.00;;;;;;;;;;5077844;28;20036;-73
2023/04/20 08:02:51;;;;;;;0.20;0.20;;;;;;;;;;5085087;28;20047;-74
2023/04/20 08:05:17;;;;;;;0.20;0.20;;;;;;;;;;5083012;28;20056;-74
2023/04/20 08:07:42;;;;;;;0.20;0.20;;;;;;;;;;5088177;28;20063;-76
2023/04/20 08:10:08;;;;;;;0.30;0.30;;;;;;;;;;5087767;28;20152;-75
2023/04/20 08:12:34;;;;;;;0.50;0.50;;;;;;;;;;5087613;28;20140;-76
2023/04/20 08:15:03;;;;;;;0.20;0.20;;;;;;;;;;5088170;28;20028;-75
2023/04/20 08:17:28;;;;;;;4.93;2.43;;;;;;;;;;5086723;28;20291;-75
2023/04/20 08:19:54;;;;;;;0.20;0.20;;;;;;;;;;5079301;28;20071;-74
2023/04/20 08:22:19;;;;;;;0.20;0.20;;;;;;;;;;5080237;28;20467;-74
2023/04/20 08:24:45;;;;;;;0.35;0.35;;;;;;;;;;5051698;28;20031;-75
2023/04/20 08:27:11;;;;;;;0.40;0.40;;;;;;;;;;5079062;28;20123;-74
2023/04/20 08:29:37;;;;;;;0.20;0.20;;;;;;;;;;5079986;28;20563;-74
2023/04/20 08:32:02;;;;;;;0.20;0.20;;;;;;;;;;5078567;28;20028;-74
2023/04/20 08:34:28;;;;;;;0.20;0.20;;;;;;;;;;5088291;28;20032;-75
2023/04/20 08:36:53;;;;;;;0.20;0.20;;;;;;;;;;5088195;28;20106;-75
2023/04/20 08:39:20;;;;;;;3.40;3.08;;;;;;;;;;5088356;28;20044;-74
2023/04/20 08:41:46;;;;;;;0.20;0.20;;;;;;;;;;5088009;28;20036;-74
2023/04/20 08:44:12;;;;;;;0.20;0.20;;;;;;;;;;5087874;28;20036;-73
2023/04/20 08:46:39;;;;;;;0.20;0.20;;;;;;;;;;5088834;28;20027;-75
2023/04/20 08:49:04;;;;;;;0.65;0.65;;;;;;;;;;5091085;28;20433;-73
2023/04/20 08:51:31;;;;;;;0.20;0.20;;;;;;;;;;5090036;28;20047;-74
2023/04/20 08:54:04;;;;;;;0.20;0.20;;;;;;;;;;5088458;28;20028;-74
2023/04/20 08:56:33;;;;;;;0.25;0.25;;;;;;;;;;5088352;28;20048;-74
2023/04/20 08:59:02;;;;;;;0.45;0.45;;;;;;;;;;5086675;28;20089;-73
2023/04/20 09:01:28;;;;;;;1.13;0.77;;;;;;;;;;5078079;28;20032;-72
2023/04/20 09:03:53;;;;;;;0.40;0.40;;;;;;;;;;5066463;28;20032;-74
2023/04/20 09:06:19;;;;;;;0.28;0.28;;;;;;;;;;5078206;28;20036;-74
2023/04/20 09:08:45;;;;;;;0.45;0.45;;;;;;;;;;5086622;28;20032;-74
2023/04/20 09:11:27;;;;;;;0.20;0.20;;;;;;;;;;5068673;28;20032;-74
2023/04/20 09:13:58;;;;;;;0.20;0.20;;;;;;;;;;5085710;28;20036;-74
2023/04/20 09:16:24;;;;;;;0.20;0.20;;;;;;;;;;5087213;28;20027;-74
2023/04/20 09:18:53;;;;;;;1.05;0.70;;;;;;;;;;5087932;28;20062;-75
2023/04/20 09:21:20;;;;;;;0.20;0.20;;;;;;;;;;5073161;28;20039;-74
2023/04/20 09:23:55;;;;;;;0.20;0.20;;;;;;;;;;5091284;28;20304;-76
2023/04/20 09:26:21;;;;;;;0.20;0.20;;;;;;;;;;5091090;28;20040;-74
2023/04/20 09:28:47;;;;;;;0.22;0.22;;;;;;;;;;5073680;28;20023;-74
2023/04/20 09:31:20;;;;;;;0.20;0.20;;;;;;;;;;5073171;28;20375;-74
2023/04/20 09:33:54;;;;;;;0.52;0.52;;;;;;;;;;5091081;28;20027;-75
2023/04/20 09:36:20;;;;;;;0.70;0.43;;;;;;;;;;5090541;28;20070;-75
2023/04/20 09:38:45;;;;;;;0.20;0.20;;;;;;;;;;5055909;28;20439;-74
2023/04/20 09:41:11;;;;;;;0.38;0.38;;;;;;;;;;5090916;28;20062;-74
2023/04/20 09:43:37;;;;;;;0.30;0.30;;;;;;;;;;5073210;28;20028;-74
2023/04/20 09:46:02;;;;;;;0.50;0.47;;;;;;;;;;5090673;28;20059;-73
2023/04/20 09:48:28;;;;;;;0.45;0.45;;;;;;;;;;5090793;28;20272;-73
2023/04/20 09:50:54;;;;;;;1.15;0.93;;;;;;;;;;5090926;28;20434;-73
2023/04/20 09:53:19;;;;;;;0.20;0.20;;;;;;;;;;5087878;28;20046;-71
2023/04/20 09:55:47;;;;;;;0.43;0.30;;;;;;;;;;5085737;28;20028;-74
2023/04/20 09:58:12;;;;;;;0.20;0.20;;;;;;;;;;5072441;28;20471;-74
2023/04/20 10:00:38;;;;;;;0.43;0.43;;;;;;;;;;5055821;28;20088;-74
2023/04/20 10:03:05;;;;;;;0.20;0.20;;;;;;;;;;5072508;28;20063;-74
2023/04/20 10:05:35;;;;;;;0.25;0.25;;;;;;;;;;5069684;28;20122;-73
2023/04/20 10:08:01;;;;;;;0.63;0.57;;;;;;;;;;5070600;28;20535;-74
2023/04/20 10:10:26;;;;;;;0.40;0.35;;;;;;;;;;5091026;28;20036;-74
2023/04/20 10:12:53;;;;;;;0.20;0.20;;;;;;;;;;5090359;28;20071;-74
2023/04/20 10:15:20;;;;;;;0.20;0.20;;;;;;;;;;5072187;28;20541;-74
2023/04/20 10:17:46;;;;;;;0.20;0.20;;;;;;;;;;5090913;28;20115;-75
2023/04/20 10:20:18;;;;;;;1.65;0.85;;;;;;;;;;5090044;28;20118;-74
2023/04/20 10:22:44;;;;;;;0.30;0.30;;;;;;;;;;5089191;28;20043;-73
2023/04/20 10:25:15;;;;;;;0.20;0.20;;;;;;;;;;5090577;28;20028;-74
2023/04/20 10:27:50;;;;;;;0.30;0.30;;;;;;;;;;5089884;28;20161;-73
2023/04/20 10:30:16;;;;;;;0.20;0.20;;;;;;;;;;5089521;28;20474;-74
2023/04/20 10:32:42;;;;;;;0.20;0.20;;;;;;;;;;5051331;28;20043;-74
2023/04/20 10:35:09;;;;;;;0.52;0.52;;;;;;;;;;5069891;28;20044;-73
2023/04/20 10:37:45;;;;;;;0.20;0.20;;;;;;;;;;5051865;28;20034;-74
2023/04/20 10:40:11;;;;;;;0.20;0.20;;;;;;;;;;5051186;28;20037;-73
2023/04/20 10:42:43;;;;;;;0.22;0.22;;;;;;;;;;5068851;28;20043;-73
2023/04/20 10:45:09;;;;;;;0.20;0.20;;;;;;;;;;5073689;28;20071;-75
2023/04/20 10:47:36;;;;;;;0.20;0.20;;;;;;;;;;5089105;28;20032;-74
2023/04/20 10:50:06;;;;;;;0.30;0.30;;;;;;;;;;5089099;28;20028;-74
2023/04/20 10:52:35;;;;;;;0.85;0.77;;;;;;;;;;5089221;28;20125;-73
2023/04/20 10:55:02;;;;;;;0.25;0.25;;;;;;;;;;5088919;28;20028;-74
2023/04/20 10:57:27;;;;;;;2.80;0.82;;;;;;;;;;5089443;28;20459;-74
2023/04/20 10:59:53;;;;;;;0.40;0.40;;;;;;;;;;5089921;28;20093;-74
2023/04/20 11:02:18;;;;;;;0.73;0.55;;;;;;;;;;5073618;28;20040;-74
2023/04/20 11:04:43;;;;;;;0.20;0.20;;;;;;;;;;5092267;28;20032;-73
2023/04/20 11:07:12;;;;;;;0.30;0.30;;;;;;;;;;5092717;28;20028;-74
2023/04/20 11:09:37;;;;;;;0.20;0.20;;;;;;;;;;5074876;28;20119;-74
2023/04/20 11:12:04;;;;;;;0.80;0.80;;;;;;;;;;5071492;28;20236;-74
2023/04/20 11:14:30;;;;;;;0.20;0.20;;;;;;;;;;5089756;28;20036;-73
2023/04/20 11:16:56;;;;;;;0.60;0.50;;;;;;;;;;5072069;28;20032;-73
2023/04/20 11:19:29;;;;;;;0.20;0.20;;;;;;;;;;5089394;28;20363;-74
2023/04/20 11:21:54;;;;;;;0.20;0.20;;;;;;;;;;5089215;28;20035;-74
2023/04/20 11:24:21;;;;;;;0.28;0.28;;;;;;;;;;5089429;28;20040;-73
2023/04/20 11:26:49;;;;;;;0.20;0.20;;;;;;;;;;5071188;28;20043;-74
2023/04/20 11:29:34;;;;;;;0.20;0.20;;;;;;;;;;5071146;28;20467;-73
2023/04/20 11:32:06;;;;;;;0.43;0.40;;;;;;;;;;5088572;28;20659;-74
2023/04/20 11:34:33;;;;;;;0.30;0.30;;;;;;;;;;5089250;28;20036;-73
2023/04/20 11:37:06;;;;;;;1.60;0.95;;;;;;;;;;5071146;28;20498;-74
2023/04/20 11:39:32;;;;;;;0.30;0.30;;;;;;;;;;5088159;28;20084;-73
2023/04/20 11:41:58;;;;;;;0.20;0.20;;;;;;;;;;5071125;28;20036;-73
2023/04/20 11:44:24;;;;;;;2.67;1.60;;;;;;;;;;5088993;28;20047;-73
2023/04/20 11:46:52;;;;;;;1.45;0.85;;;;;;;;;;5086050;28;20024;-73
2023/04/20 11:49:17;;;;;;;2.15;1.25;;;;;;;;;;5070948;28;20070;-74
2023/04/20 11:51:43;;;;;;;0.20;0.20;;;;;;;;;;5088906;28;20034;-74
2023/04/20 11:54:09;;;;;;;4.28;1.60;;;;;;;;;;5086834;28;20044;-73
2023/04/20 11:56:36;;;;;;;0.85;0.77;;;;;;;;;;5104603;28;20483;-74
2023/04/20 11:59:01;;;;;;;0.98;0.98;;;;;;;;;;5088938;28;20058;-74
2023/04/20 12:01:27;;;;;;;1.15;0.77;;;;;;;;;;5084723;28;20048;-75
2023/04/20 12:03:54;;;;;;;0.20;0.20;;;;;;;;;;5070408;28;20031;-74
2023/04/20 12:06:19;;;;;;;0.65;0.65;;;;;;;;;;5070550;28;20028;-74
2023/04/20 12:08:46;;;;;;;1.13;0.77;;;;;;;;;;5088545;28;20086;-74
2023/04/20 12:11:12;;;;;;;1.13;0.90;;;;;;;;;;5070093;28;20024;-73
2023/04/20 12:13:37;;;;;;;1.08;0.82;;;;;;;;;;5070214;28;20055;-73
2023/04/20 12:16:03;;;;;;;2.55;1.50;;;;;;;;;;5069714;28;20047;-73
2023/04/20 12:18:28;;;;;;;0.28;0.28;;;;;;;;;;5088428;28;20471;-74
2023/04/20 12:20:54;;;;;;;1.42;1.10;;;;;;;;;;5088375;28;20059;-74
2023/04/20 12:23:19;;;;;;;1.55;1.30;;;;;;;;;;5088642;28;20497;-74
2023/04/20 12:25:45;;;;;;;0.30;0.30;;;;;;;;;;5103834;28;20056;-73
2023/04/20 12:28:10;;;;;;;1.45;1.00;;;;;;;;;;5088344;28;20028;-74
2023/04/20 12:30:36;;;;;;;3.20;1.60;;;;;;;;;;5088152;28;20491;-73
2023/04/20 12:33:02;;;;;;;0.35;0.35;;;;;;;;;;5088190;28;20093;-75
2023/04/20 12:35:28;;;;;;;0.55;0.50;;;;;;;;;;5088537;28;20084;-74
2023/04/20 12:37:54;;;;;;;2.22;1.30;;;;;;;;;;5087954;28;20044;-74
2023/04/20 12:40:19;;;;;;;0.43;0.43;;;;;;;;;;5087981;28;20028;-73
2023/04/20 12:42:45;;;;;;;1.17;0.98;;;;;;;;;;5088446;28;20177;-76
2023/04/20 12:45:10;;;;;;;1.25;1.08;;;;;;;;;;5087874;28;20081;-74
2023/04/20 12:47:36;;;;;;;0.95;0.60;;;;;;;;;;5086544;28;20032;-74
2023/04/20 12:50:02;;;;;;;1.55;1.17;;;;;;;;;;5090072;28;20050;-74
2023/04/20 12:52:28;;;;;;;4.13;1.77;;;;;;;;;;5091521;28;20093;-74
2023/04/20 12:54:53;;;;;;;0.30;0.30;;;;;;;;;;5073316;28;20039;-73
2023/04/20 12:57:19;;;;;;;2.13;1.40;;;;;;;;;;5091648;28;20073;-74
2023/04/20 12:59:47;;;;;;;2.22;1.60;;;;;;;;;;5073530;28;20107;-74
2023/04/20 13:02:12;;;;;;;1.33;0.77;;;;;;;;;;5091349;28;20471;-75
2023/04/20 13:04:38;;;;;;;2.22;1.65;;;;;;;;;;5091944;28;20093;-71
2023/04/20 13:07:03;;;;;;;1.42;0.85;;;;;;;;;;5090302;28;20036;-75
2023/04/20 13:09:29;;;;;;;1.50;1.42;;;;;;;;;;5090510;28;20449;-72
2023/04/20 13:11:55;;;;;;;2.30;1.40;;;;;;;;;;5091826;28;20028;-73
2023/04/20 13:14:20;;;;;;;0.77;0.63;;;;;;;;;;5090421;28;20475;-72
2023/04/20 13:16:45;;;;;;;2.65;1.30;;;;;;;;;;5092038;28;20028;-70
2023/04/20 13:19:11;;;;;;;0.65;0.55;;;;;;;;;;5095138;28;20475;-71
2023/04/20 13:21:36;;;;;;;1.13;0.95;;;;;;;;;;5095303;28;20020;-72
2023/04/20 13:24:02;;;;;;;0.60;0.60;;;;;;;;;;5085182;28;20031;-71
2023/04/20 13:26:28;;;;;;;1.00;0.50;;;;;;;;;;5090193;28;20016;-71
2023/04/20 13:28:53;;;;;;;1.17;0.85;;;;;;;;;;5067361;28;20028;-72
2023/04/20 13:31:19;;;;;;;0.30;0.30;;;;;;;;;;5086006;28;20092;-71
2023/04/20 13:33:44;;;;;;;0.40;0.40;;;;;;;;;;5089556;28;20035;-73
2023/04/20 13:36:11;;;;;;;0.47;0.47;;;;;;;;;;5090167;28;20819;-71
2023/04/20 13:38:47;;;;;;;1.98;1.30;;;;;;;;;;5092046;28;20039;-71
2023/04/20 13:41:20;;;;;;;0.43;0.43;;;;;;;;;;5091628;28;20071;-71
2023/04/20 13:43:56;;;;;;;0.30;0.30;;;;;;;;;;5090236;28;20439;-70
2023/04/20 13:46:22;;;;;;;1.90;1.75;;;;;;;;;;5085383;28;20357;-72
2023/04/20 13:48:47;;;;;;;1.10;0.80;;;;;;;;;;5063158;28;20031;-70
2023/04/20 13:51:13;;;;;;;0.70;0.65;;;;;;;;;;5058355;28;20036;-72
2023/04/20 13:53:38;;;;;;;2.80;1.35;;;;;;;;;;5066267;28;20043;-70
2023/04/20 13:56:04;;;;;;;1.77;1.20;;;;;;;;;;5093837;28;20085;-71
2023/04/20 13:58:29;;;;;;;1.15;0.90;;;;;;;;;;5069190;28;20158;-72
2023/04/20 14:00:55;;;;;;;1.05;0.85;;;;;;;;;;5084682;28;20024;-72
2023/04/20 14:03:20;;;;;;;0.22;0.22;;;;;;;;;;5091358;28;20031;-72
2023/04/20 14:05:46;;;;;;;1.40;0.25;;;;;;;;;;5090919;28;20593;-72
2023/04/20 14:08:14;;;;;;;7.53;2.67;;;;;;;;;;5091550;28;20170;-72
2023/04/20 14:10:40;;;;;;;1.58;1.05;;;;;;;;;;5090805;28;20372;-72
2023/04/20 14:13:06;;;;;;;0.90;0.80;;;;;;;;;;5090716;28;20117;-71
2023/04/20 14:15:34;;;;;;;0.20;0.20;;;;;;;;;;5090790;28;20032;-70
2023/04/20 14:18:01;;;;;;;0.30;0.30;;;;;;;;;;5073595;28;20445;-70
2023/04/20 14:20:27;;;;;;;0.35;0.35;;;;;;;;;;5090409;28;20043;-70
2023/04/20 14:22:53;;;;;;;0.40;0.40;;;;;;;;;;5091019;28;20032;-70
2023/04/20 14:25:18;;;;;;;1.50;1.05;;;;;;;;;;5090825;28;20036;-70
2023/04/20 14:27:45;;;;;;;0.40;0.40;;;;;;;;;;5072053;28;20081;-70
2023/04/20 14:30:10;;;;;;;0.30;0.30;;;;;;;;;;5090170;28;20134;-71
2023/04/20 14:32:36;;;;;;;1.00;0.93;;;;;;;;;;5090429;28;20024;-71
2023/04/20 14:35:03;;;;;;;0.40;0.40;;;;;;;;;;5090329;28;20494;-71
2023/04/20 14:37:28;;;;;;;2.13;1.40;;;;;;;;;;5090474;28;20550;-70
2023/04/20 14:39:54;;;;;;;1.33;0.82;;;;;;;;;;5090329;28;20115;-70